Coquille, OR (97423)

6:02 AM PDT on March 27, 2015 (GMT -0700)
RAWS SEVEN MILE CREEK OR US | | Change Station
CLOSE
Current Station
Personal Weather Station
Location: Coquille, OR
Elevation: 437 ft
Nearby Weather Stations

Elev 437 ft 43.21 °N, 124.32 °W | Updated 3 days ago

Fog
Fog
48 °F
Feels Like 48 °F
N
3
Wind Variable Wind from WSW
Gusts mph

Today
High -- | Low -- °F
--% Chance of Precip.
Yesterday
High -- | Low -- °F
Precip. -- in
7:07 AM 7:37 PM
First Quarter, 52% visible
Pressure 30.11 in
Visibility 7.0 miles
Clouds Overcast 300 ft
Dew Point 48 °F
Humidity 100%
Rainfall in
Snow Depth Not available.
UV 0 out of 12
Pollen 8.80 out of 12
Air Quality Not available.
Flu Activity Not available.
METAR KOTH 271255Z 14007KT 7SM OVC003 11/11 A3011 RMK AO1

More Conditions Fewer Conditions

Pressure 30.11 in
Visibility 7.0 miles
Clouds Overcast 300 ft
Dew Point 48 °F
Humidity 100%
Rainfall in
Snow Depth Not available.
UV 0 out of 12
Pollen 8.80 out of 12
Air Quality Not available.
Flu Activity Not available.
METAR KOTH 271255Z 14007KT 7SM OVC003 11/11 A3011 RMK AO1

More Conditions Fewer Conditions

10-Day Weather Forecast

Almanac

Astronomy

Mar. 27, 2015 Rise Set
Actual Time
Civil Twilight
Nautical Twilight
Astronomical Twilight
Moon
Length of Visible Light
Length of Day
Tomorrow will be .
, % of the Moon is Illuminated

Today's Extremes

State Highs State Lows

Community

WunderPhotos

Upload Photos

1,808,726 photos uploaded!

WunderBlogs® & News

Nearby

Air Quality

  Air Quality AQ Index Pollutant
Not available.

Snow Depth

Station Depth Elevation

Earthquake Activity

City Distance Mag. Time & Date
Minimum magnitude displayed is 2.5.

Coastal Water Temperatures

Place Temperature

Stations

Nearby Weather Stations

Station Location Temp. Windchill Dew Point Humidity Wind Precip. Elev Updated Type